createdAt,value
2023-01-04T00:03:58.952Z,100177.8
2023-01-04T00:09:35.005Z,100169.4
2023-01-04T00:15:11.660Z,100170.8
2023-01-04T00:20:47.008Z,100165
2023-01-04T00:26:22.305Z,100167
2023-01-04T00:31:56.900Z,100170.1
2023-01-04T00:37:32.158Z,100163.4
2023-01-04T00:43:08.405Z,100163.2
2023-01-04T00:49:05.771Z,100162.2
2023-01-04T00:54:38.662Z,100165.4
2023-01-04T01:00:13.876Z,100165.5
2023-01-04T01:05:50.720Z,100171.5
2023-01-04T01:11:25.659Z,100177.5
2023-01-04T01:17:01.341Z,100180.1
2023-01-04T01:22:45.440Z,100181.2
2023-01-04T01:28:20.561Z,100187.9
2023-01-04T01:33:55.904Z,100190
2023-01-04T01:39:32.943Z,100197.3
2023-01-04T01:45:08.221Z,100203.2
2023-01-04T01:50:43.136Z,100202.4
2023-01-04T01:56:18.299Z,100203.8
2023-01-04T02:01:55.212Z,100212.1
2023-01-04T02:07:32.062Z,100214.8
2023-01-04T02:13:07.412Z,100215
2023-01-04T02:18:43.684Z,100213.7
2023-01-04T02:24:20.020Z,100209.7
2023-01-04T02:29:55.383Z,100213.2
2023-01-04T02:35:33.780Z,100216.8
2023-01-04T02:41:09.175Z,100214.2
2023-01-04T02:47:07.107Z,100209.4
2023-01-04T02:52:40.669Z,100202.7
2023-01-04T02:58:16.167Z,100194.9
2023-01-04T03:03:53.181Z,100194.7
2023-01-04T03:09:35.143Z,100198.3
2023-01-04T03:15:10.565Z,100196.9
2023-01-04T03:20:45.845Z,100198
2023-01-04T03:26:21.941Z,100193.5
2023-01-04T03:32:00.004Z,100198.8
2023-01-04T03:37:34.761Z,100203.7
2023-01-04T03:43:10.409Z,100204.4
2023-01-04T03:49:08.024Z,100201.4
2023-01-04T03:54:41.057Z,100200.4
2023-01-04T04:00:17.751Z,100194.9
2023-01-04T04:05:53.499Z,100197.6
2023-01-04T04:11:28.971Z,100198.9
2023-01-04T04:17:04.106Z,100197.4
2023-01-04T04:22:39.188Z,100195.3
2023-01-04T04:28:14.142Z,100198.6
2023-01-04T04:33:49.338Z,100196.4
2023-01-04T04:39:24.802Z,100195.4
2023-01-04T04:45:01.256Z,100193.8
2023-01-04T04:50:37.026Z,100191.1
2023-01-04T04:56:12.056Z,100192.1
2023-01-04T05:01:48.369Z,100191
2023-01-04T05:07:25.034Z,100195.3
2023-01-04T05:13:00.878Z,100201.5
2023-01-04T05:18:36.223Z,100199.9
2023-01-04T05:24:13.416Z,100198.8
2023-01-04T05:29:49.998Z,100201.6
2023-01-04T05:35:25.314Z,100201.3
2023-01-04T05:41:01.286Z,100199.7
2023-01-04T05:46:58.556Z,100198.3
2023-01-04T05:52:31.206Z,100199.6
2023-01-04T05:58:07.344Z,100203.2
2023-01-04T06:03:43.268Z,100210.5
2023-01-04T06:09:19.979Z,100221.8
2023-01-04T06:14:55.267Z,100221.2
2023-01-04T06:20:30.650Z,100215
2023-01-04T06:26:05.737Z,100212.5
2023-01-04T06:31:41.443Z,100212
2023-01-04T06:37:25.361Z,100209
2023-01-04T06:43:01.105Z,100214.8
2023-01-04T06:48:58.476Z,100220.1
2023-01-04T06:54:31.499Z,100221.6
2023-01-04T07:00:08.001Z,100225.6
2023-01-04T07:05:44.554Z,100225.4
2023-01-04T07:11:19.615Z,100229.8
2023-01-04T07:16:54.811Z,100231.6
2023-01-04T07:22:30.661Z,100238
2023-01-04T07:28:06.239Z,100241
2023-01-04T07:33:41.918Z,100244.8
2023-01-04T07:39:17.387Z,100255.6
2023-01-04T07:44:52.443Z,100260.4
2023-01-04T07:50:28.712Z,100260.3
2023-01-04T07:56:04.706Z,100262.2
2023-01-04T08:01:43.459Z,100265.9
2023-01-04T08:07:29.563Z,100266.8
2023-01-04T08:13:05.632Z,100271.3
2023-01-04T08:18:43.803Z,100279.8
2023-01-04T08:24:19.863Z,100283.4
2023-01-04T08:30:09.579Z,100286.4
2023-01-04T08:35:45.760Z,100282.2
2023-01-04T08:42:32.188Z,100287.7
2023-01-04T08:48:29.654Z,100291
2023-01-04T08:54:03.935Z,100289.4
2023-01-04T08:59:39.003Z,100298.1
2023-01-04T09:05:27.325Z,100309
2023-01-04T09:11:12.583Z,100314.4
2023-01-04T09:16:56.582Z,100317.6
2023-01-04T09:22:32.326Z,100320.1
2023-01-04T09:28:09.289Z,100325.5
2023-01-04T09:34:26.401Z,100330.1
2023-01-04T09:40:11.509Z,100339.9
2023-01-04T09:45:47.924Z,100350.3
2023-01-04T09:51:23.385Z,100356.6
2023-01-04T09:57:00.349Z,100351.1
2023-01-04T10:02:58.423Z,100356
2023-01-04T10:08:35.253Z,100354.5
2023-01-04T10:14:10.669Z,100360.8
2023-01-04T10:27:10.742Z,100366.5
2023-01-04T10:32:45.880Z,100361
2023-01-04T10:38:21.376Z,100356.6
2023-01-04T10:44:14.952Z,100353.1
2023-01-04T10:49:50.403Z,100340.6
2023-01-04T10:55:25.392Z,100338
2023-01-04T11:01:02.666Z,100330.2
2023-01-04T11:06:38.418Z,100321.6
2023-01-04T11:12:14.786Z,100317
2023-01-04T11:17:49.893Z,100322
2023-01-04T11:23:24.799Z,100321.7
2023-01-04T11:29:00.245Z,100320.8
2023-01-04T11:34:35.885Z,100312.4
2023-01-04T11:40:12.396Z,100310.2
2023-01-04T11:45:47.914Z,100299.4
2023-01-04T11:51:23.642Z,100294.9
2023-01-04T11:56:59.192Z,100290.8
2023-01-04T12:03:04.515Z,100289.4
2023-01-04T12:08:41.679Z,100285.8
2023-01-04T12:14:17.965Z,100285.5
2023-01-04T12:19:54.198Z,100280.1
2023-01-04T12:25:29.830Z,100270.7
2023-01-04T12:36:40.893Z,100258
2023-01-04T12:42:16.740Z,100252.9
2023-01-04T12:48:14.524Z,100241.9
2023-01-04T12:53:47.455Z,100239.8
2023-01-04T12:59:27.504Z,100234.2
2023-01-04T13:05:57.459Z,100228.2
2023-01-04T13:11:39.294Z,100219.6
2023-01-04T13:17:16.020Z,100212.9
2023-01-04T13:22:52.601Z,100205.6
2023-01-04T13:28:31.522Z,100202.6
2023-01-04T13:34:33.395Z,100201.3
2023-01-04T13:40:08.670Z,100195.2
2023-01-04T13:45:44.784Z,100190.1
2023-01-04T13:51:20.705Z,100186.8
2023-01-04T13:56:56.816Z,100184.5
2023-01-04T14:02:32.748Z,100182.4
2023-01-04T14:08:09.603Z,100177.3
2023-01-04T14:13:44.804Z,100172.2
2023-01-04T14:19:20.416Z,100167.2
2023-01-04T14:25:12.293Z,100167.9
2023-01-04T14:30:48.737Z,100169.6
2023-01-04T14:36:24.736Z,100171.4
2023-01-04T14:42:00.537Z,100172.9
2023-01-04T14:47:57.595Z,100171.9
2023-01-04T14:53:30.672Z,100174.7
2023-01-04T14:59:05.963Z,100175.2
2023-01-04T15:04:40.933Z,100176.1
2023-01-04T15:10:15.943Z,100176.5
2023-01-04T15:15:51.621Z,100180.9
2023-01-04T15:21:27.949Z,100187
2023-01-04T15:27:03.776Z,100191.6
2023-01-04T15:32:38.789Z,100192.6
2023-01-04T15:38:19.010Z,100189.7
2023-01-04T15:43:54.354Z,100188.9
2023-01-04T15:49:50.941Z,100195
2023-01-04T15:55:23.538Z,100198.4
2023-01-04T16:01:07.569Z,100204.8
2023-01-04T16:06:43.647Z,100198.2
2023-01-04T16:12:19.305Z,100197.7
2023-01-04T16:17:54.604Z,100193.5
2023-01-04T16:23:29.640Z,100194.5
2023-01-04T16:29:06.999Z,100202.9
2023-01-04T16:34:42.636Z,100201.2
2023-01-04T16:40:17.798Z,100200.5
2023-01-04T16:45:53.346Z,100201.8
2023-01-04T16:51:28.765Z,100205.3
2023-01-04T16:57:03.988Z,100208.5
2023-01-04T17:02:43.886Z,100208.1
2023-01-04T17:08:27.955Z,100209.3
2023-01-04T17:14:14.747Z,100208.5
2023-01-04T17:19:52.683Z,100207.9
2023-01-04T17:25:32.027Z,100211.7
2023-01-04T17:31:07.703Z,100209.8
2023-01-04T17:36:44.600Z,100206.1
2023-01-04T17:42:20.003Z,100205.2
2023-01-04T17:47:55.560Z,100205
2023-01-04T17:53:31.068Z,100209.1
2023-01-04T17:59:06.240Z,100212.7
2023-01-04T18:04:41.800Z,100222.1
2023-01-04T18:11:08.167Z,100220.5
2023-01-04T18:16:46.624Z,100228.8
2023-01-04T18:22:22.882Z,100229.4
2023-01-04T18:28:12.511Z,100230
2023-01-04T18:34:21.378Z,100229.3
2023-01-04T18:40:23.019Z,100233
2023-01-04T18:46:50.198Z,100237.6
2023-01-04T18:52:27.845Z,100242.1
2023-01-04T18:58:03.411Z,100243.5
2023-01-04T19:03:39.143Z,100248.3
2023-01-04T19:09:14.969Z,100251.8
2023-01-04T19:14:50.509Z,100254.1
2023-01-04T19:20:33.290Z,100262.1
2023-01-04T19:26:12.361Z,100267.3
2023-01-04T19:32:01.423Z,100267.9
2023-01-04T19:37:37.901Z,100274.7
2023-01-04T19:43:30.029Z,100274.5
2023-01-04T19:49:16.293Z,100273.2
2023-01-04T19:54:52.512Z,100274.7
2023-01-04T20:01:03.527Z,100273.7
2023-01-04T20:06:39.479Z,100273.9
2023-01-04T20:12:17.193Z,100274.7
2023-01-04T20:17:58.409Z,100275.6
2023-01-04T20:23:33.506Z,100278.1
2023-01-04T20:29:18.248Z,100278.1
2023-01-04T20:34:53.705Z,100277.4
2023-01-04T20:40:28.973Z,100280.7
2023-01-04T20:46:13.996Z,100281.7
2023-01-04T20:51:50.377Z,100279.5
2023-01-04T20:57:34.588Z,100281.7
2023-01-04T21:03:11.816Z,100280.4
2023-01-04T21:08:48.676Z,100276.1
2023-01-04T21:14:30.957Z,100272.8
2023-01-04T21:20:22.622Z,100275.6
2023-01-04T21:26:11.428Z,100274.3
2023-01-04T21:31:48.192Z,100273.1
2023-01-04T21:37:27.430Z,100277.5
2023-01-04T21:43:25.500Z,100278.5
2023-01-04T21:49:03.673Z,100280.9
2023-01-04T21:54:46.009Z,100278.7
2023-01-04T22:00:22.002Z,100279.2
2023-01-04T22:06:06.083Z,100272.5
2023-01-04T22:11:42.128Z,100268.4
2023-01-04T22:17:33.495Z,100268.7
2023-01-04T22:23:30.718Z,100265.6
2023-01-04T22:29:05.504Z,100267.7
2023-01-04T22:35:01.899Z,100267.9
2023-01-04T22:40:44.294Z,100265
2023-01-04T22:48:05.626Z,100262.2
2023-01-04T22:53:40.928Z,100260.3
2023-01-04T22:59:16.528Z,100258.4
2023-01-04T23:04:58.304Z,100253.4
2023-01-04T23:10:44.121Z,100253.6
2023-01-04T23:16:31.738Z,100256.6
2023-01-04T23:22:19.611Z,100255.1
2023-01-04T23:28:19.623Z,100254.2
2023-01-04T23:34:24.814Z,100250.5
2023-01-04T23:39:59.973Z,100248.1
2023-01-04T23:45:43.043Z,100239.2
2023-01-04T23:51:36.216Z,100235.7
2023-01-04T23:57:42.289Z,100227
